createdAt,value
2018-04-30T00:46:01.069Z,15.40
2018-04-30T00:58:28.549Z,14.90
2018-04-30T01:03:27.520Z,14.80
2018-04-30T01:05:56.925Z,14.80
2018-04-30T01:08:25.460Z,14.60
2018-04-30T01:10:55.492Z,14.60
2018-04-30T01:15:53.713Z,14.50
2018-04-30T01:18:22.193Z,14.50
2018-04-30T01:23:20.171Z,14.40
2018-04-30T01:25:48.760Z,14.30
2018-04-30T01:28:17.271Z,14.30
2018-04-30T01:40:43.593Z,13.90
2018-04-30T01:43:12.885Z,13.70
2018-04-30T01:45:41.485Z,13.60
2018-04-30T01:48:09.941Z,13.50
2018-04-30T01:50:38.599Z,13.50
2018-04-30T01:53:07.073Z,9.40
2018-04-30T01:55:35.550Z,13.30
2018-04-30T01:58:04.091Z,13.30
2018-04-30T02:00:32.329Z,13.30
2018-04-30T02:03:00.799Z,13.10
2018-04-30T02:05:29.297Z,13.10
2018-04-30T02:07:57.770Z,13.10
2018-04-30T02:10:26.269Z,13.00
2018-04-30T02:12:54.736Z,13.00
2018-04-30T02:15:23.323Z,12.90
2018-04-30T02:17:51.802Z,12.80
2018-04-30T02:20:20.302Z,12.80
2018-04-30T02:22:48.781Z,12.70
2018-04-30T02:25:17.334Z,12.70
2018-04-30T02:27:46.573Z,12.50
2018-04-30T02:30:15.209Z,12.50
2018-04-30T02:32:44.131Z,12.40
2018-04-30T02:35:12.281Z,12.30
2018-04-30T02:37:41.609Z,12.20
2018-04-30T02:40:10.095Z,12.30
2018-04-30T02:42:38.577Z,12.20
2018-04-30T02:45:06.890Z,12.20
2018-04-30T02:47:35.546Z,12.10
2018-04-30T02:50:03.702Z,12.00
2018-04-30T02:52:32.570Z,12.00
2018-04-30T02:55:01.842Z,11.80
2018-04-30T02:57:30.337Z,11.80
2018-04-30T02:59:59.989Z,11.80
2018-04-30T03:02:28.462Z,11.90
2018-04-30T03:04:57.130Z,11.90
2018-04-30T03:07:26.439Z,11.80
2018-04-30T03:09:55.705Z,11.80
2018-04-30T03:12:24.192Z,11.80
2018-04-30T03:14:52.696Z,11.70
2018-04-30T03:17:22.281Z,11.70
2018-04-30T03:19:50.789Z,11.60
2018-04-30T03:22:20.136Z,11.50
2018-04-30T03:24:48.600Z,11.30
2018-04-30T03:27:18.038Z,11.20
2018-04-30T03:29:46.512Z,11.20
2018-04-30T03:32:15.005Z,11.20
2018-04-30T03:34:43.481Z,11.20
2018-04-30T03:37:12.353Z,11.00
2018-04-30T03:39:41.595Z,10.90
2018-04-30T03:42:09.756Z,10.80
2018-04-30T03:44:38.252Z,10.80
2018-04-30T03:47:06.814Z,10.60
2018-04-30T03:49:35.378Z,10.60
2018-04-30T03:52:03.977Z,10.50
2018-04-30T03:54:32.477Z,10.50
2018-04-30T03:57:01.045Z,10.40
2018-04-30T03:59:29.196Z,10.30
2018-04-30T04:02:08.894Z,10.30
2018-04-30T04:04:48.708Z,10.20
2018-04-30T04:07:17.180Z,10.10
2018-04-30T04:09:45.685Z,10.10
2018-04-30T04:12:14.169Z,10.20
2018-04-30T04:14:42.648Z,10.20
2018-04-30T04:17:11.134Z,10.00
2018-04-30T04:19:39.620Z,10.00
2018-04-30T04:22:08.104Z,10.00
2018-04-30T04:24:36.604Z,10.10
2018-04-30T04:27:05.107Z,10.10
2018-04-30T04:29:33.640Z,10.10
2018-04-30T04:32:02.118Z,10.10
2018-04-30T04:34:30.620Z,10.10
2018-04-30T04:36:59.125Z,10.10
2018-04-30T04:39:27.893Z,10.00
2018-04-30T04:41:56.464Z,10.20
2018-04-30T04:44:24.957Z,10.20
2018-04-30T04:46:53.445Z,10.20
2018-04-30T04:49:21.916Z,10.10
2018-04-30T04:51:51.536Z,10.20
2018-04-30T04:54:20.460Z,10.20
2018-04-30T04:56:49.838Z,10.20
2018-04-30T04:59:18.325Z,10.20
2018-04-30T05:01:46.793Z,10.20
2018-04-30T05:04:15.749Z,10.20
2018-04-30T05:06:45.078Z,10.20
2018-04-30T05:09:14.043Z,10.30
2018-04-30T05:11:43.294Z,10.30
2018-04-30T05:14:11.800Z,10.40
2018-04-30T05:16:41.773Z,10.40
2018-04-30T05:19:10.362Z,10.40
2018-04-30T05:21:38.832Z,10.40
2018-04-30T05:24:07.310Z,10.30
2018-04-30T05:26:36.267Z,10.30
2018-04-30T05:29:04.597Z,10.20
2018-04-30T05:31:32.889Z,10.40
2018-04-30T05:34:01.370Z,10.50
2018-04-30T05:36:30.008Z,10.60
2018-04-30T05:38:59.270Z,10.60
2018-04-30T05:41:27.755Z,10.60
2018-04-30T05:43:56.359Z,10.70
2018-04-30T05:46:26.532Z,10.60
2018-04-30T05:48:55.038Z,10.60
2018-04-30T05:51:23.529Z,10.60
2018-04-30T05:53:52.138Z,10.70
2018-04-30T05:56:21.152Z,10.80
2018-04-30T05:58:50.280Z,11.00
2018-04-30T06:01:18.891Z,11.00
2018-04-30T06:03:47.494Z,10.90
2018-04-30T06:06:18.436Z,10.90
2018-04-30T06:08:46.970Z,10.80
2018-04-30T06:11:15.452Z,11.00
2018-04-30T06:13:43.930Z,10.90
2018-04-30T06:16:12.596Z,11.00
2018-04-30T06:18:41.843Z,11.20
2018-04-30T06:21:10.405Z,11.20
2018-04-30T06:23:39.000Z,11.10
2018-04-30T06:26:07.578Z,11.30
2018-04-30T06:28:36.064Z,11.60
2018-04-30T06:31:04.661Z,11.90
2018-04-30T06:33:33.141Z,12.00
2018-04-30T06:36:01.649Z,12.10
2018-04-30T06:38:31.065Z,12.10
2018-04-30T06:40:59.533Z,12.10
2018-04-30T06:45:57.230Z,12.50
2018-04-30T06:48:25.874Z,12.80
2018-04-30T06:55:53.984Z,12.50
2018-04-30T06:58:23.309Z,12.30
2018-04-30T07:03:21.269Z,12.30
2018-04-30T07:05:49.758Z,12.10
2018-04-30T07:08:18.234Z,12.30
2018-04-30T07:10:46.739Z,12.30
2018-04-30T07:13:15.401Z,12.30
2018-04-30T07:15:43.885Z,12.30
2018-04-30T07:18:13.270Z,12.40
2018-04-30T07:20:41.769Z,12.30
2018-04-30T07:23:10.245Z,12.60
2018-04-30T07:40:36.094Z,13.20
2018-04-30T07:43:05.618Z,13.30
2018-04-30T07:53:02.953Z,13.00
2018-04-30T08:03:01.627Z,13.10
2018-04-30T08:05:31.054Z,13.30
2018-04-30T08:12:59.470Z,13.60
2018-04-30T08:22:56.673Z,13.90
2018-04-30T08:25:25.151Z,14.00
2018-04-30T08:30:23.240Z,14.20
2018-04-30T08:42:49.797Z,14.40
2018-04-30T08:45:18.291Z,14.70
2018-04-30T09:12:42.686Z,15.10
2018-04-30T09:15:11.183Z,15.20
2018-04-30T09:37:36.825Z,15.20
2018-04-30T10:02:31.299Z,15.80
2018-04-30T13:39:20.913Z,17.30
2018-04-30T13:41:49.410Z,19.70
2018-04-30T13:44:17.928Z,19.00
2018-04-30T13:46:46.485Z,18.70
2018-04-30T13:49:15.063Z,19.70
2018-04-30T14:29:06.214Z,20.70
2018-04-30T14:31:35.153Z,18.90
2018-04-30T15:53:50.509Z,18.80
2018-04-30T15:56:19.274Z,17.40
2018-04-30T15:58:47.774Z,17.20
2018-04-30T21:22:46.549Z,17.10
2018-04-30T21:25:15.137Z,11.80
2018-04-30T21:27:44.381Z,11.60
2018-04-30T21:30:12.597Z,11.50
2018-04-30T21:32:41.122Z,11.70
2018-04-30T21:35:09.681Z,11.70
2018-04-30T21:37:38.929Z,11.60
2018-04-30T21:40:07.631Z,11.50
2018-04-30T21:42:37.025Z,11.40
2018-04-30T21:45:05.553Z,11.30
2018-04-30T21:47:34.856Z,11.30
2018-04-30T21:50:03.496Z,11.30
2018-04-30T21:52:31.985Z,11.10
2018-04-30T21:55:00.529Z,11.10
2018-04-30T21:57:29.186Z,11.10
2018-04-30T21:59:58.561Z,11.10
2018-04-30T22:02:27.032Z,11.10
2018-04-30T22:04:55.536Z,11.30
2018-04-30T22:07:24.804Z,11.10
2018-04-30T22:09:53.310Z,11.00
2018-04-30T22:12:21.967Z,11.10
2018-04-30T22:14:50.131Z,11.20
2018-04-30T22:17:18.607Z,11.20
2018-04-30T22:19:47.198Z,11.20
2018-04-30T22:22:15.854Z,11.20
2018-04-30T22:24:45.102Z,11.20
2018-04-30T22:27:13.583Z,11.20
2018-04-30T22:29:42.266Z,11.30
2018-04-30T22:32:10.757Z,11.20
2018-04-30T22:34:39.219Z,11.20
2018-04-30T22:37:07.736Z,11.00
2018-04-30T22:39:36.216Z,11.00
2018-04-30T22:42:04.740Z,11.00
2018-04-30T22:44:34.037Z,11.00
2018-04-30T22:47:02.581Z,10.90
2018-04-30T22:49:31.221Z,10.80
2018-04-30T22:52:00.565Z,10.70
2018-04-30T22:54:29.039Z,10.60
2018-04-30T22:56:57.511Z,10.70
2018-04-30T22:59:26.033Z,10.80
2018-04-30T23:01:54.488Z,10.90
2018-04-30T23:04:22.973Z,11.00
2018-04-30T23:06:51.446Z,11.00
2018-04-30T23:09:19.954Z,11.00
2018-04-30T23:11:48.601Z,11.10
2018-04-30T23:14:17.112Z,10.90
2018-04-30T23:16:45.661Z,10.90
2018-04-30T23:19:14.955Z,10.60
2018-04-30T23:21:44.213Z,10.60
2018-04-30T23:24:12.845Z,10.60
2018-04-30T23:26:42.275Z,10.70
2018-04-30T23:29:10.805Z,10.70
2018-04-30T23:31:40.057Z,10.50
2018-04-30T23:34:08.528Z,10.40
2018-04-30T23:36:37.019Z,10.50
2018-04-30T23:39:04.832Z,10.60
2018-04-30T23:41:34.197Z,10.70
2018-04-30T23:44:02.689Z,10.60
2018-04-30T23:46:31.241Z,10.60
2018-04-30T23:49:00.470Z,10.60
2018-04-30T23:51:28.952Z,10.50
2018-04-30T23:53:57.423Z,10.50
2018-04-30T23:56:25.959Z,10.60
2018-04-30T23:58:54.874Z,10.60
